sensor_id;sensor_type;location;lat;lon;timestamp;temperature;humidity
18317;DHT22;9284;52.298;21.164;2024-02-21T00:00:36;4.90;99.90
18317;DHT22;9284;52.298;21.164;2024-02-21T00:03:05;4.90;99.90
18317;DHT22;9284;52.298;21.164;2024-02-21T00:05:35;4.80;99.90
18317;DHT22;9284;52.298;21.164;2024-02-21T00:08:04;4.80;99.90
18317;DHT22;9284;52.298;21.164;2024-02-21T00:10:32;4.70;99.90
18317;DHT22;9284;52.298;21.164;2024-02-21T00:13:02;4.70;99.90
18317;DHT22;9284;52.298;21.164;2024-02-21T00:15:31;4.70;99.90
18317;DHT22;9284;52.298;21.164;2024-02-21T00:17:59;4.70;99.90
18317;DHT22;9284;52.298;21.164;2024-02-21T00:20:28;4.80;99.90
18317;DHT22;9284;52.298;21.164;2024-02-21T00:22:58;4.60;99.90
18317;DHT22;9284;52.298;21.164;2024-02-21T00:25:27;4.70;99.90
18317;DHT22;9284;52.298;21.164;2024-02-21T00:27:55;4.80;99.90
18317;DHT22;9284;52.298;21.164;2024-02-21T00:30:24;4.80;99.90
18317;DHT22;9284;52.298;21.164;2024-02-21T00:32:52;4.80;99.90
18317;DHT22;9284;52.298;21.164;2024-02-21T00:35:20;4.80;99.90
18317;DHT22;9284;52.298;21.164;2024-02-21T00:37:49;4.80;99.90
18317;DHT22;9284;52.298;21.164;2024-02-21T00:40:19;4.70;99.90
18317;DHT22;9284;52.298;21.164;2024-02-21T00:42:49;4.80;99.90
18317;DHT22;9284;52.298;21.164;2024-02-21T00:45:17;4.90;99.90
18317;DHT22;9284;52.298;21.164;2024-02-21T00:47:46;4.80;99.90
18317;DHT22;9284;52.298;21.164;2024-02-21T00:50:14;4.90;99.90
18317;DHT22;9284;52.298;21.164;2024-02-21T00:52:43;4.90;99.90
18317;DHT22;9284;52.298;21.164;2024-02-21T00:55:11;4.90;99.90
18317;DHT22;9284;52.298;21.164;2024-02-21T00:57:41;4.90;99.90
18317;DHT22;9284;52.298;21.164;2024-02-21T01:00:10;4.90;99.90
18317;DHT22;9284;52.298;21.164;2024-02-21T01:02:39;4.90;99.90
18317;DHT22;9284;52.298;21.164;2024-02-21T01:05:07;5.00;99.90
18317;DHT22;9284;52.298;21.164;2024-02-21T01:07:36;4.90;99.90
18317;DHT22;9284;52.298;21.164;2024-02-21T01:10:06;4.90;99.90
18317;DHT22;9284;52.298;21.164;2024-02-21T01:12:34;5.00;99.90
18317;DHT22;9284;52.298;21.164;2024-02-21T01:15:05;5.00;99.90
18317;DHT22;9284;52.298;21.164;2024-02-21T01:17:33;4.90;99.90
18317;DHT22;9284;52.298;21.164;2024-02-21T01:20:03;4.90;99.90
18317;DHT22;9284;52.298;21.164;2024-02-21T01:22:33;5.00;99.90
18317;DHT22;9284;52.298;21.164;2024-02-21T01:25:01;5.00;99.90
18317;DHT22;9284;52.298;21.164;2024-02-21T01:27:29;5.00;99.90
18317;DHT22;9284;52.298;21.164;2024-02-21T01:29:58;5.00;99.90
18317;DHT22;9284;52.298;21.164;2024-02-21T01:32:27;5.00;99.90
18317;DHT22;9284;52.298;21.164;2024-02-21T01:34:56;5.00;99.90
18317;DHT22;9284;52.298;21.164;2024-02-21T01:37:24;5.00;99.90
18317;DHT22;9284;52.298;21.164;2024-02-21T01:39:53;5.00;99.90
18317;DHT22;9284;52.298;21.164;2024-02-21T01:42:21;5.00;99.90
18317;DHT22;9284;52.298;21.164;2024-02-21T01:44:50;5.00;90.00
18317;DHT22;9284;52.298;21.164;2024-02-21T01:47:18;5.00;99.90
18317;DHT22;9284;52.298;21.164;2024-02-21T01:49:49;5.00;99.90
18317;DHT22;9284;52.298;21.164;2024-02-21T01:52:18;5.00;99.90
18317;DHT22;9284;52.298;21.164;2024-02-21T01:54:47;5.20;99.90
18317;DHT22;9284;52.298;21.164;2024-02-21T01:57:15;5.10;99.90
18317;DHT22;9284;52.298;21.164;2024-02-21T01:59:44;5.10;99.90
18317;DHT22;9284;52.298;21.164;2024-02-21T02:02:13;5.10;99.90
18317;DHT22;9284;52.298;21.164;2024-02-21T02:04:42;5.10;99.90
18317;DHT22;9284;52.298;21.164;2024-02-21T02:07:13;5.20;99.90
18317;DHT22;9284;52.298;21.164;2024-02-21T02:09:42;5.30;99.90
18317;DHT22;9284;52.298;21.164;2024-02-21T02:12:10;5.20;99.90
18317;DHT22;9284;52.298;21.164;2024-02-21T02:14:39;5.20;99.90
18317;DHT22;9284;52.298;21.164;2024-02-21T02:17:07;5.20;64.40
18317;DHT22;9284;52.298;21.164;2024-02-21T02:19:36;5.30;86.20
18317;DHT22;9284;52.298;21.164;2024-02-21T02:22:10;5.30;26.90
18317;DHT22;9284;52.298;21.164;2024-02-21T02:24:43;5.30;38.00
18317;DHT22;9284;52.298;21.164;2024-02-21T02:27:12;5.30;99.90
18317;DHT22;9284;52.298;21.164;2024-02-21T02:29:40;5.20;99.90
18317;DHT22;9284;52.298;21.164;2024-02-21T02:32:09;5.30;99.90
18317;DHT22;9284;52.298;21.164;2024-02-21T02:34:37;5.40;99.90
18317;DHT22;9284;52.298;21.164;2024-02-21T02:37:06;5.40;99.90
18317;DHT22;9284;52.298;21.164;2024-02-21T02:39:34;5.30;99.90
18317;DHT22;9284;52.298;21.164;2024-02-21T02:42:05;5.30;99.90
18317;DHT22;9284;52.298;21.164;2024-02-21T02:44:33;5.40;99.90
18317;DHT22;9284;52.298;21.164;2024-02-21T02:47:01;5.40;99.90
18317;DHT22;9284;52.298;21.164;2024-02-21T02:49:30;5.40;99.90
18317;DHT22;9284;52.298;21.164;2024-02-21T02:51:58;5.40;99.90
18317;DHT22;9284;52.298;21.164;2024-02-21T02:54:27;5.40;99.90
18317;DHT22;9284;52.298;21.164;2024-02-21T02:56:55;5.40;99.90
18317;DHT22;9284;52.298;21.164;2024-02-21T02:59:25;5.50;99.90
18317;DHT22;9284;52.298;21.164;2024-02-21T03:01:53;5.40;99.90
18317;DHT22;9284;52.298;21.164;2024-02-21T03:04:21;5.40;99.90
18317;DHT22;9284;52.298;21.164;2024-02-21T03:06:50;5.40;99.90
18317;DHT22;9284;52.298;21.164;2024-02-21T03:09:18;5.30;99.90
18317;DHT22;9284;52.298;21.164;2024-02-21T03:11:46;5.30;99.90
18317;DHT22;9284;52.298;21.164;2024-02-21T03:14:15;5.20;1.00
18317;DHT22;9284;52.298;21.164;2024-02-21T03:16:45;5.20;1.00
18317;DHT22;9284;52.298;21.164;2024-02-21T03:19:13;5.20;1.00
18317;DHT22;9284;52.298;21.164;2024-02-21T03:21:41;5.20;1.00
18317;DHT22;9284;52.298;21.164;2024-02-21T03:24:10;5.10;1.00
18317;DHT22;9284;52.298;21.164;2024-02-21T03:26:38;5.10;1.00
18317;DHT22;9284;52.298;21.164;2024-02-21T03:29:07;5.00;1.00
18317;DHT22;9284;52.298;21.164;2024-02-21T03:31:35;4.90;1.00
18317;DHT22;9284;52.298;21.164;2024-02-21T03:34:04;4.90;1.00
18317;DHT22;9284;52.298;21.164;2024-02-21T03:36:33;4.80;1.00
18317;DHT22;9284;52.298;21.164;2024-02-21T03:39:01;4.80;1.00
18317;DHT22;9284;52.298;21.164;2024-02-21T03:41:29;4.80;1.00
18317;DHT22;9284;52.298;21.164;2024-02-21T03:43:58;4.80;1.00
18317;DHT22;9284;52.298;21.164;2024-02-21T03:46:26;4.80;1.00
18317;DHT22;9284;52.298;21.164;2024-02-21T03:48:55;4.80;1.00
18317;DHT22;9284;52.298;21.164;2024-02-21T03:51:25;4.90;1.00
18317;DHT22;9284;52.298;21.164;2024-02-21T03:53:53;4.80;1.00
18317;DHT22;9284;52.298;21.164;2024-02-21T03:56:22;4.80;1.00
18317;DHT22;9284;52.298;21.164;2024-02-21T03:58:50;4.80;1.00
18317;DHT22;9284;52.298;21.164;2024-02-21T04:01:19;4.80;1.00
18317;DHT22;9284;52.298;21.164;2024-02-21T04:03:47;4.70;1.00
18317;DHT22;9284;52.298;21.164;2024-02-21T04:06:16;4.60;1.00
18317;DHT22;9284;52.298;21.164;2024-02-21T04:08:45;4.60;1.00
18317;DHT22;9284;52.298;21.164;2024-02-21T04:11:14;4.50;1.00
18317;DHT22;9284;52.298;21.164;2024-02-21T04:13:42;4.40;1.00
18317;DHT22;9284;52.298;21.164;2024-02-21T04:16:11;4.30;1.00
18317;DHT22;9284;52.298;21.164;2024-02-21T04:18:40;4.30;1.00
18317;DHT22;9284;52.298;21.164;2024-02-21T04:21:08;4.40;1.00
18317;DHT22;9284;52.298;21.164;2024-02-21T04:23:39;4.40;1.00
18317;DHT22;9284;52.298;21.164;2024-02-21T04:26:09;4.50;1.00
18317;DHT22;9284;52.298;21.164;2024-02-21T04:28:37;4.50;1.00
18317;DHT22;9284;52.298;21.164;2024-02-21T04:31:06;4.50;1.00
18317;DHT22;9284;52.298;21.164;2024-02-21T04:33:34;4.60;1.00
18317;DHT22;9284;52.298;21.164;2024-02-21T04:36:03;4.50;1.00
18317;DHT22;9284;52.298;21.164;2024-02-21T04:38:32;4.60;1.00
18317;DHT22;9284;52.298;21.164;2024-02-21T04:41:00;4.60;8.60
18317;DHT22;9284;52.298;21.164;2024-02-21T04:43:30;4.70;17.00
18317;DHT22;9284;52.298;21.164;2024-02-21T04:45:58;4.80;24.30
18317;DHT22;9284;52.298;21.164;2024-02-21T04:48:27;4.80;26.60
18317;DHT22;9284;52.298;21.164;2024-02-21T04:50:55;4.90;28.20
18317;DHT22;9284;52.298;21.164;2024-02-21T04:53:24;4.90;29.20
18317;DHT22;9284;52.298;21.164;2024-02-21T04:55:52;4.90;29.60
18317;DHT22;9284;52.298;21.164;2024-02-21T04:58:20;4.80;29.00
18317;DHT22;9284;52.298;21.164;2024-02-21T05:00:50;4.90;28.70
18317;DHT22;9284;52.298;21.164;2024-02-21T05:03:20;4.90;27.50
18317;DHT22;9284;52.298;21.164;2024-02-21T05:13:11;5.10;30.70
18317;DHT22;9284;52.298;21.164;2024-02-21T05:15:39;5.10;28.50
18317;DHT22;9284;52.298;21.164;2024-02-21T05:18:09;5.10;24.00
18317;DHT22;9284;52.298;21.164;2024-02-21T05:20:37;5.20;23.40
18317;DHT22;9284;52.298;21.164;2024-02-21T05:23:06;5.20;25.00
18317;DHT22;9284;52.298;21.164;2024-02-21T05:25:34;5.40;25.60
18317;DHT22;9284;52.298;21.164;2024-02-21T05:28:03;5.30;21.50
18317;DHT22;9284;52.298;21.164;2024-02-21T05:30:33;5.30;16.30
18317;DHT22;9284;52.298;21.164;2024-02-21T05:33:04;5.30;7.80
18317;DHT22;9284;52.298;21.164;2024-02-21T05:35:35;5.30;1.00
18317;DHT22;9284;52.298;21.164;2024-02-21T05:38:04;5.20;1.00
18317;DHT22;9284;52.298;21.164;2024-02-21T05:40:38;5.30;1.00
18317;DHT22;9284;52.298;21.164;2024-02-21T05:43:07;5.30;1.00
18317;DHT22;9284;52.298;21.164;2024-02-21T05:45:35;5.40;1.00
18317;DHT22;9284;52.298;21.164;2024-02-21T05:48:04;5.40;2.70
18317;DHT22;9284;52.298;21.164;2024-02-21T05:50:34;5.50;8.30
18317;DHT22;9284;52.298;21.164;2024-02-21T05:53:03;5.50;10.30
18317;DHT22;9284;52.298;21.164;2024-02-21T05:55:32;5.50;11.40
18317;DHT22;9284;52.298;21.164;2024-02-21T05:58:00;5.50;10.70
18317;DHT22;9284;52.298;21.164;2024-02-21T06:00:29;5.60;8.10
18317;DHT22;9284;52.298;21.164;2024-02-21T06:02:58;5.60;1.40
18317;DHT22;9284;52.298;21.164;2024-02-21T06:05:26;5.60;1.00
18317;DHT22;9284;52.298;21.164;2024-02-21T06:07:56;5.60;1.00
18317;DHT22;9284;52.298;21.164;2024-02-21T06:10:25;5.70;1.00
18317;DHT22;9284;52.298;21.164;2024-02-21T06:12:53;5.70;1.00
18317;DHT22;9284;52.298;21.164;2024-02-21T06:15:21;5.70;1.00
18317;DHT22;9284;52.298;21.164;2024-02-21T06:17:50;5.70;1.00
18317;DHT22;9284;52.298;21.164;2024-02-21T06:20:18;5.70;1.00
18317;DHT22;9284;52.298;21.164;2024-02-21T06:22:47;5.80;1.00
18317;DHT22;9284;52.298;21.164;2024-02-21T06:25:17;5.80;1.00
18317;DHT22;9284;52.298;21.164;2024-02-21T06:27:45;5.80;1.00
18317;DHT22;9284;52.298;21.164;2024-02-21T06:30:14;5.90;1.00
18317;DHT22;9284;52.298;21.164;2024-02-21T06:32:42;5.90;1.00
18317;DHT22;9284;52.298;21.164;2024-02-21T06:35:10;5.90;1.00
18317;DHT22;9284;52.298;21.164;2024-02-21T06:37:39;6.00;1.00
18317;DHT22;9284;52.298;21.164;2024-02-21T06:40:08;6.00;1.00
18317;DHT22;9284;52.298;21.164;2024-02-21T06:42:38;6.10;1.00
18317;DHT22;9284;52.298;21.164;2024-02-21T06:45:06;6.10;1.00
18317;DHT22;9284;52.298;21.164;2024-02-21T06:47:35;6.10;1.00
18317;DHT22;9284;52.298;21.164;2024-02-21T06:50:04;6.20;1.00
18317;DHT22;9284;52.298;21.164;2024-02-21T06:52:32;6.20;1.00
18317;DHT22;9284;52.298;21.164;2024-02-21T06:55:01;6.20;1.00
18317;DHT22;9284;52.298;21.164;2024-02-21T06:57:29;6.30;1.00
18317;DHT22;9284;52.298;21.164;2024-02-21T06:59:59;6.30;1.00
18317;DHT22;9284;52.298;21.164;2024-02-21T07:02:28;6.30;1.00
18317;DHT22;9284;52.298;21.164;2024-02-21T07:04:56;6.30;1.00
18317;DHT22;9284;52.298;21.164;2024-02-21T07:07:24;6.30;1.00
18317;DHT22;9284;52.298;21.164;2024-02-21T07:09:53;6.30;1.00
18317;DHT22;9284;52.298;21.164;2024-02-21T07:12:21;6.30;1.00
18317;DHT22;9284;52.298;21.164;2024-02-21T07:14:50;6.30;1.00
18317;DHT22;9284;52.298;21.164;2024-02-21T07:17:19;6.30;1.00
18317;DHT22;9284;52.298;21.164;2024-02-21T07:19:48;6.40;1.00
18317;DHT22;9284;52.298;21.164;2024-02-21T07:22:16;6.40;1.00
18317;DHT22;9284;52.298;21.164;2024-02-21T07:24:45;6.40;99.90
18317;DHT22;9284;52.298;21.164;2024-02-21T07:27:14;6.40;99.90
18317;DHT22;9284;52.298;21.164;2024-02-21T07:29:43;6.40;99.90
18317;DHT22;9284;52.298;21.164;2024-02-21T07:32:14;6.40;99.90
18317;DHT22;9284;52.298;21.164;2024-02-21T07:34:44;6.50;99.90
18317;DHT22;9284;52.298;21.164;2024-02-21T07:37:13;6.50;99.90
18317;DHT22;9284;52.298;21.164;2024-02-21T07:39:41;6.50;47.50
18317;DHT22;9284;52.298;21.164;2024-02-21T07:42:09;6.50;1.00
18317;DHT22;9284;52.298;21.164;2024-02-21T07:44:38;6.60;1.00
18317;DHT22;9284;52.298;21.164;2024-02-21T07:47:06;6.60;1.00
18317;DHT22;9284;52.298;21.164;2024-02-21T07:49:41;6.70;1.00
18317;DHT22;9284;52.298;21.164;2024-02-21T07:52:11;6.70;1.00
18317;DHT22;9284;52.298;21.164;2024-02-21T07:54:40;6.70;1.00
18317;DHT22;9284;52.298;21.164;2024-02-21T07:57:08;6.70;1.00
18317;DHT22;9284;52.298;21.164;2024-02-21T07:59:37;6.80;99.90
18317;DHT22;9284;52.298;21.164;2024-02-21T08:02:05;6.90;99.90
18317;DHT22;9284;52.298;21.164;2024-02-21T08:04:34;6.90;99.90
18317;DHT22;9284;52.298;21.164;2024-02-21T08:07:03;6.90;1.00
18317;DHT22;9284;52.298;21.164;2024-02-21T08:09:33;7.00;1.00
18317;DHT22;9284;52.298;21.164;2024-02-21T08:12:02;7.10;99.90
18317;DHT22;9284;52.298;21.164;2024-02-21T08:14:31;7.10;1.00
18317;DHT22;9284;52.298;21.164;2024-02-21T08:16:59;7.20;1.00
18317;DHT22;9284;52.298;21.164;2024-02-21T08:19:27;7.30;1.00
18317;DHT22;9284;52.298;21.164;2024-02-21T08:21:56;7.40;99.90
18317;DHT22;9284;52.298;21.164;2024-02-21T08:24:24;7.50;33.20
18317;DHT22;9284;52.298;21.164;2024-02-21T08:26:54;7.60;1.00
18317;DHT22;9284;52.298;21.164;2024-02-21T08:29:22;7.70;1.00
18317;DHT22;9284;52.298;21.164;2024-02-21T08:31:50;7.80;99.90
18317;DHT22;9284;52.298;21.164;2024-02-21T08:34:19;7.80;13.00
18317;DHT22;9284;52.298;21.164;2024-02-21T08:36:48;7.90;1.00
18317;DHT22;9284;52.298;21.164;2024-02-21T08:39:16;8.00;99.90
18317;DHT22;9284;52.298;21.164;2024-02-21T08:41:45;8.10;38.30
18317;DHT22;9284;52.298;21.164;2024-02-21T08:44:25;8.20;59.70
18317;DHT22;9284;52.298;21.164;2024-02-21T08:46:54;8.30;99.90
18317;DHT22;9284;52.298;21.164;2024-02-21T08:49:24;8.30;1.00
18317;DHT22;9284;52.298;21.164;2024-02-21T08:52:00;8.40;99.90
18317;DHT22;9284;52.298;21.164;2024-02-21T08:54:29;8.40;1.00
18317;DHT22;9284;52.298;21.164;2024-02-21T08:56:58;8.40;1.00
18317;DHT22;9284;52.298;21.164;2024-02-21T08:59:28;8.20;1.00
18317;DHT22;9284;52.298;21.164;2024-02-21T09:01:56;8.10;1.00
18317;DHT22;9284;52.298;21.164;2024-02-21T09:04:24;8.10;1.00
18317;DHT22;9284;52.298;21.164;2024-02-21T09:06:53;8.00;99.90
18317;DHT22;9284;52.298;21.164;2024-02-21T09:09:21;8.00;99.90
18317;DHT22;9284;52.298;21.164;2024-02-21T09:11:53;8.10;1.00
18317;DHT22;9284;52.298;21.164;2024-02-21T09:14:22;8.20;99.90
18317;DHT22;9284;52.298;21.164;2024-02-21T09:16:51;8.30;1.00
18317;DHT22;9284;52.298;21.164;2024-02-21T09:19:20;8.50;99.90
18317;DHT22;9284;52.298;21.164;2024-02-21T09:21:48;8.50;99.90
18317;DHT22;9284;52.298;21.164;2024-02-21T09:24:17;8.60;39.50
18317;DHT22;9284;52.298;21.164;2024-02-21T09:26:46;8.60;2.80
18317;DHT22;9284;52.298;21.164;2024-02-21T09:29:14;8.70;1.00
18317;DHT22;9284;52.298;21.164;2024-02-21T09:31:43;8.60;1.00
18317;DHT22;9284;52.298;21.164;2024-02-21T09:34:14;8.60;1.00
18317;DHT22;9284;52.298;21.164;2024-02-21T09:36:42;8.50;1.00
18317;DHT22;9284;52.298;21.164;2024-02-21T09:39:11;8.50;1.00
18317;DHT22;9284;52.298;21.164;2024-02-21T09:41:45;8.40;40.20
18317;DHT22;9284;52.298;21.164;2024-02-21T09:44:16;8.50;99.90
18317;DHT22;9284;52.298;21.164;2024-02-21T09:46:52;8.40;99.90
18317;DHT22;9284;52.298;21.164;2024-02-21T09:49:30;8.40;99.90
18317;DHT22;9284;52.298;21.164;2024-02-21T09:52:01;8.30;99.90
18317;DHT22;9284;52.298;21.164;2024-02-21T09:54:32;8.20;89.30
18317;DHT22;9284;52.298;21.164;2024-02-21T09:57:00;8.10;1.00
18317;DHT22;9284;52.298;21.164;2024-02-21T09:59:32;8.00;1.00
18317;DHT22;9284;52.298;21.164;2024-02-21T10:02:01;7.90;99.90
18317;DHT22;9284;52.298;21.164;2024-02-21T10:04:31;8.00;1.00
18317;DHT22;9284;52.298;21.164;2024-02-21T10:07:00;8.00;99.90
18317;DHT22;9284;52.298;21.164;2024-02-21T10:09:29;7.90;99.90
18317;DHT22;9284;52.298;21.164;2024-02-21T10:12:08;8.00;1.00
18317;DHT22;9284;52.298;21.164;2024-02-21T10:14:37;8.00;1.00
18317;DHT22;9284;52.298;21.164;2024-02-21T10:17:06;8.10;99.90
18317;DHT22;9284;52.298;21.164;2024-02-21T10:19:39;8.20;99.90
18317;DHT22;9284;52.298;21.164;2024-02-21T10:22:09;8.20;99.90
18317;DHT22;9284;52.298;21.164;2024-02-21T10:24:38;8.20;1.00
18317;DHT22;9284;52.298;21.164;2024-02-21T10:27:09;8.20;99.90
18317;DHT22;9284;52.298;21.164;2024-02-21T10:29:40;8.30;99.90
18317;DHT22;9284;52.298;21.164;2024-02-21T10:32:10;8.30;99.90
18317;DHT22;9284;52.298;21.164;2024-02-21T10:34:42;8.30;99.90
18317;DHT22;9284;52.298;21.164;2024-02-21T10:37:12;8.30;1.00
18317;DHT22;9284;52.298;21.164;2024-02-21T10:39:42;8.30;1.00
18317;DHT22;9284;52.298;21.164;2024-02-21T10:42:12;8.30;1.00
18317;DHT22;9284;52.298;21.164;2024-02-21T10:44:41;8.40;1.00
18317;DHT22;9284;52.298;21.164;2024-02-21T10:47:11;8.40;1.00
18317;DHT22;9284;52.298;21.164;2024-02-21T10:49:44;8.50;99.90
18317;DHT22;9284;52.298;21.164;2024-02-21T10:52:25;8.50;99.90
18317;DHT22;9284;52.298;21.164;2024-02-21T10:55:03;8.60;1.00
18317;DHT22;9284;52.298;21.164;2024-02-21T10:57:32;8.60;1.00
18317;DHT22;9284;52.298;21.164;2024-02-21T11:00:03;8.50;1.00
18317;DHT22;9284;52.298;21.164;2024-02-21T11:02:35;8.50;1.00
18317;DHT22;9284;52.298;21.164;2024-02-21T11:05:06;8.50;1.00
18317;DHT22;9284;52.298;21.164;2024-02-21T11:07:37;8.40;1.00
18317;DHT22;9284;52.298;21.164;2024-02-21T11:10:20;8.40;94.80
18317;DHT22;9284;52.298;21.164;2024-02-21T11:12:52;8.40;99.90
18317;DHT22;9284;52.298;21.164;2024-02-21T11:15:25;8.40;99.90
18317;DHT22;9284;52.298;21.164;2024-02-21T11:17:55;8.50;1.00
18317;DHT22;9284;52.298;21.164;2024-02-21T11:20:36;8.50;13.80
18317;DHT22;9284;52.298;21.164;2024-02-21T11:23:05;8.40;1.00
18317;DHT22;9284;52.298;21.164;2024-02-21T11:25:34;8.40;99.90
18317;DHT22;9284;52.298;21.164;2024-02-21T11:28:03;8.40;1.00
18317;DHT22;9284;52.298;21.164;2024-02-21T11:30:36;8.40;56.60
18317;DHT22;9284;52.298;21.164;2024-02-21T11:33:06;8.40;99.90
18317;DHT22;9284;52.298;21.164;2024-02-21T11:35:37;8.40;99.90
18317;DHT22;9284;52.298;21.164;2024-02-21T11:38:09;8.40;1.00
18317;DHT22;9284;52.298;21.164;2024-02-21T11:40:40;8.40;1.00
18317;DHT22;9284;52.298;21.164;2024-02-21T11:43:09;8.40;1.00
18317;DHT22;9284;52.298;21.164;2024-02-21T11:45:37;8.30;99.90
18317;DHT22;9284;52.298;21.164;2024-02-21T11:48:07;8.30;1.00
18317;DHT22;9284;52.298;21.164;2024-02-21T11:50:37;8.30;66.00
18317;DHT22;9284;52.298;21.164;2024-02-21T11:53:06;8.30;1.00
18317;DHT22;9284;52.298;21.164;2024-02-21T11:55:36;8.20;1.00
18317;DHT22;9284;52.298;21.164;2024-02-21T11:58:05;8.10;1.00
18317;DHT22;9284;52.298;21.164;2024-02-21T12:00:33;8.10;99.90
18317;DHT22;9284;52.298;21.164;2024-02-21T12:03:03;8.10;99.90
18317;DHT22;9284;52.298;21.164;2024-02-21T12:05:33;8.00;1.00
18317;DHT22;9284;52.298;21.164;2024-02-21T12:08:04;8.00;1.00
18317;DHT22;9284;52.298;21.164;2024-02-21T12:10:33;8.00;1.00
18317;DHT22;9284;52.298;21.164;2024-02-21T12:13:06;8.00;64.70
18317;DHT22;9284;52.298;21.164;2024-02-21T12:15:35;7.90;99.90
18317;DHT22;9284;52.298;21.164;2024-02-21T12:18:04;7.90;99.90
18317;DHT22;9284;52.298;21.164;2024-02-21T12:20:33;7.80;99.90
18317;DHT22;9284;52.298;21.164;2024-02-21T12:23:09;7.80;99.90
18317;DHT22;9284;52.298;21.164;2024-02-21T12:25:39;7.80;99.90
18317;DHT22;9284;52.298;21.164;2024-02-21T12:28:07;7.80;99.90
18317;DHT22;9284;52.298;21.164;2024-02-21T12:30:36;7.80;1.00
18317;DHT22;9284;52.298;21.164;2024-02-21T12:33:06;7.80;1.00
18317;DHT22;9284;52.298;21.164;2024-02-21T12:35:35;7.70;1.00
18317;DHT22;9284;52.298;21.164;2024-02-21T12:38:05;7.70;1.00
18317;DHT22;9284;52.298;21.164;2024-02-21T12:40:33;7.70;1.00
18317;DHT22;9284;52.298;21.164;2024-02-21T12:43:02;7.70;1.00
18317;DHT22;9284;52.298;21.164;2024-02-21T12:45:31;7.60;1.00
18317;DHT22;9284;52.298;21.164;2024-02-21T12:48:01;7.60;1.00
18317;DHT22;9284;52.298;21.164;2024-02-21T12:50:31;7.60;1.00
18317;DHT22;9284;52.298;21.164;2024-02-21T12:53:00;7.70;1.00
18317;DHT22;9284;52.298;21.164;2024-02-21T12:55:31;7.70;1.00
18317;DHT22;9284;52.298;21.164;2024-02-21T12:58:03;7.70;1.00
18317;DHT22;9284;52.298;21.164;2024-02-21T13:00:32;7.70;1.00
18317;DHT22;9284;52.298;21.164;2024-02-21T13:03:03;7.80;1.00
18317;DHT22;9284;52.298;21.164;2024-02-21T13:05:31;7.70;1.00
18317;DHT22;9284;52.298;21.164;2024-02-21T13:08:00;7.70;1.00
18317;DHT22;9284;52.298;21.164;2024-02-21T13:10:30;7.70;1.00
18317;DHT22;9284;52.298;21.164;2024-02-21T13:13:00;7.70;1.00
18317;DHT22;9284;52.298;21.164;2024-02-21T13:15:29;7.70;1.00
18317;DHT22;9284;52.298;21.164;2024-02-21T13:17:57;7.70;1.00
18317;DHT22;9284;52.298;21.164;2024-02-21T13:20:26;7.70;1.00
18317;DHT22;9284;52.298;21.164;2024-02-21T13:22:56;7.70;1.00
18317;DHT22;9284;52.298;21.164;2024-02-21T13:25:24;7.70;1.00
18317;DHT22;9284;52.298;21.164;2024-02-21T13:27:54;7.70;1.00
18317;DHT22;9284;52.298;21.164;2024-02-21T13:30:23;7.70;1.00
18317;DHT22;9284;52.298;21.164;2024-02-21T13:32:53;7.70;1.00
18317;DHT22;9284;52.298;21.164;2024-02-21T13:35:22;7.70;1.00
18317;DHT22;9284;52.298;21.164;2024-02-21T13:37:51;7.70;1.00
18317;DHT22;9284;52.298;21.164;2024-02-21T13:40:20;7.70;1.00
18317;DHT22;9284;52.298;21.164;2024-02-21T13:42:48;7.60;1.00
18317;DHT22;9284;52.298;21.164;2024-02-21T13:45:19;7.60;1.00
18317;DHT22;9284;52.298;21.164;2024-02-21T13:47:47;7.70;1.00
18317;DHT22;9284;52.298;21.164;2024-02-21T13:50:16;7.60;1.00
18317;DHT22;9284;52.298;21.164;2024-02-21T13:52:54;7.60;1.00
18317;DHT22;9284;52.298;21.164;2024-02-21T13:55:23;7.60;1.00
18317;DHT22;9284;52.298;21.164;2024-02-21T13:57:53;7.60;1.00
18317;DHT22;9284;52.298;21.164;2024-02-21T14:00:23;7.60;1.00
18317;DHT22;9284;52.298;21.164;2024-02-21T14:02:52;7.60;1.00
18317;DHT22;9284;52.298;21.164;2024-02-21T14:05:21;7.60;1.00
18317;DHT22;9284;52.298;21.164;2024-02-21T14:07:50;7.60;1.00
18317;DHT22;9284;52.298;21.164;2024-02-21T14:10:21;7.60;1.00
18317;DHT22;9284;52.298;21.164;2024-02-21T14:12:50;7.60;1.00
18317;DHT22;9284;52.298;21.164;2024-02-21T14:15:18;7.60;1.00
18317;DHT22;9284;52.298;21.164;2024-02-21T14:17:48;7.60;1.00
18317;DHT22;9284;52.298;21.164;2024-02-21T14:20:16;7.60;1.00
18317;DHT22;9284;52.298;21.164;2024-02-21T14:22:45;7.60;1.00
18317;DHT22;9284;52.298;21.164;2024-02-21T14:25:13;7.60;1.00
18317;DHT22;9284;52.298;21.164;2024-02-21T14:27:43;7.60;1.00
18317;DHT22;9284;52.298;21.164;2024-02-21T14:30:12;7.50;1.00
18317;DHT22;9284;52.298;21.164;2024-02-21T14:32:43;7.50;1.00
18317;DHT22;9284;52.298;21.164;2024-02-21T14:35:13;7.60;1.00
18317;DHT22;9284;52.298;21.164;2024-02-21T14:37:42;7.60;1.00
18317;DHT22;9284;52.298;21.164;2024-02-21T14:40:12;7.60;1.00
18317;DHT22;9284;52.298;21.164;2024-02-21T14:42:41;7.60;1.00
18317;DHT22;9284;52.298;21.164;2024-02-21T14:45:09;7.60;1.00
18317;DHT22;9284;52.298;21.164;2024-02-21T14:47:38;7.60;1.00
18317;DHT22;9284;52.298;21.164;2024-02-21T14:50:07;7.60;1.00
18317;DHT22;9284;52.298;21.164;2024-02-21T14:52:37;7.60;7.60
18317;DHT22;9284;52.298;21.164;2024-02-21T14:55:06;7.50;1.00
18317;DHT22;9284;52.298;21.164;2024-02-21T14:57:35;7.50;3.80
18317;DHT22;9284;52.298;21.164;2024-02-21T15:00:07;7.50;8.00
18317;DHT22;9284;52.298;21.164;2024-02-21T15:02:37;7.50;14.30
18317;DHT22;9284;52.298;21.164;2024-02-21T15:05:05;7.50;20.60
18317;DHT22;9284;52.298;21.164;2024-02-21T15:07:34;7.40;22.50
18317;DHT22;9284;52.298;21.164;2024-02-21T15:10:05;7.40;27.60
18317;DHT22;9284;52.298;21.164;2024-02-21T15:12:35;7.40;36.70
18317;DHT22;9284;52.298;21.164;2024-02-21T15:15:04;7.40;41.70
18317;DHT22;9284;52.298;21.164;2024-02-21T15:17:32;7.40;40.80
18317;DHT22;9284;52.298;21.164;2024-02-21T15:20:01;7.40;50.50
18317;DHT22;9284;52.298;21.164;2024-02-21T15:22:32;7.40;46.70
18317;DHT22;9284;52.298;21.164;2024-02-21T15:25:00;7.40;45.80
18317;DHT22;9284;52.298;21.164;2024-02-21T15:27:30;7.40;47.60
18317;DHT22;9284;52.298;21.164;2024-02-21T15:29:58;7.30;44.70
18317;DHT22;9284;52.298;21.164;2024-02-21T15:32:28;7.30;47.80
18317;DHT22;9284;52.298;21.164;2024-02-21T15:34:56;7.40;34.90
18317;DHT22;9284;52.298;21.164;2024-02-21T15:37:25;7.30;29.50
18317;DHT22;9284;52.298;21.164;2024-02-21T15:39:53;7.30;27.30
18317;DHT22;9284;52.298;21.164;2024-02-21T15:42:22;7.30;32.50
18317;DHT22;9284;52.298;21.164;2024-02-21T15:44:51;7.30;42.90
18317;DHT22;9284;52.298;21.164;2024-02-21T15:47:20;7.30;54.70
18317;DHT22;9284;52.298;21.164;2024-02-21T15:49:50;7.30;59.30
18317;DHT22;9284;52.298;21.164;2024-02-21T15:52:19;7.30;66.10
18317;DHT22;9284;52.298;21.164;2024-02-21T15:54:48;7.30;72.00
18317;DHT22;9284;52.298;21.164;2024-02-21T15:57:16;7.40;71.50
18317;DHT22;9284;52.298;21.164;2024-02-21T15:59:45;7.40;72.40
18317;DHT22;9284;52.298;21.164;2024-02-21T16:02:17;7.30;76.20
18317;DHT22;9284;52.298;21.164;2024-02-21T16:04:45;7.40;74.40
18317;DHT22;9284;52.298;21.164;2024-02-21T16:07:14;7.40;76.90
18317;DHT22;9284;52.298;21.164;2024-02-21T16:09:42;7.40;77.40
18317;DHT22;9284;52.298;21.164;2024-02-21T16:12:13;7.40;75.70
18317;DHT22;9284;52.298;21.164;2024-02-21T16:14:43;7.40;66.40